sensor_id;sensor_type;location;lat;lon;timestamp;temperature;humidity
44223;DHT22;29895;48.804;9.386;2023-04-01T00:00:18;9.10;99.90
44223;DHT22;29895;48.804;9.386;2023-04-01T00:02:44;9.00;99.90
44223;DHT22;29895;48.804;9.386;2023-04-01T00:05:10;9.00;99.90
44223;DHT22;29895;48.804;9.386;2023-04-01T00:07:39;9.00;99.90
44223;DHT22;29895;48.804;9.386;2023-04-01T00:10:10;9.00;99.90
44223;DHT22;29895;48.804;9.386;2023-04-01T00:12:37;9.00;99.90
44223;DHT22;29895;48.804;9.386;2023-04-01T00:15:09;9.00;99.90
44223;DHT22;29895;48.804;9.386;2023-04-01T00:17:35;9.00;99.90
44223;DHT22;29895;48.804;9.386;2023-04-01T00:20:02;9.00;99.90
44223;DHT22;29895;48.804;9.386;2023-04-01T00:22:28;9.00;99.90
44223;DHT22;29895;48.804;9.386;2023-04-01T00:24:53;9.10;99.90
44223;DHT22;29895;48.804;9.386;2023-04-01T00:27:20;9.10;99.90
44223;DHT22;29895;48.804;9.386;2023-04-01T00:29:46;9.20;99.90
44223;DHT22;29895;48.804;9.386;2023-04-01T00:32:13;9.20;99.90
44223;DHT22;29895;48.804;9.386;2023-04-01T00:34:40;9.10;99.90
44223;DHT22;29895;48.804;9.386;2023-04-01T00:37:07;9.20;99.90
44223;DHT22;29895;48.804;9.386;2023-04-01T00:39:33;9.20;99.90
44223;DHT22;29895;48.804;9.386;2023-04-01T00:42:00;9.20;99.90
44223;DHT22;29895;48.804;9.386;2023-04-01T00:44:31;9.10;99.90
44223;DHT22;29895;48.804;9.386;2023-04-01T00:46:58;9.10;99.90
44223;DHT22;29895;48.804;9.386;2023-04-01T00:49:31;9.00;99.90
44223;DHT22;29895;48.804;9.386;2023-04-01T00:52:00;9.00;99.90
44223;DHT22;29895;48.804;9.386;2023-04-01T00:54:29;9.00;99.90
44223;DHT22;29895;48.804;9.386;2023-04-01T00:57:08;9.00;99.90
44223;DHT22;29895;48.804;9.386;2023-04-01T00:59:42;9.00;99.90
44223;DHT22;29895;48.804;9.386;2023-04-01T01:02:11;9.00;99.90
44223;DHT22;29895;48.804;9.386;2023-04-01T01:04:37;9.20;99.90
44223;DHT22;29895;48.804;9.386;2023-04-01T01:10:29;9.10;99.90
44223;DHT22;29895;48.804;9.386;2023-04-01T01:35:27;9.00;99.90
44223;DHT22;29895;48.804;9.386;2023-04-01T01:38:00;9.10;99.90
44223;DHT22;29895;48.804;9.386;2023-04-01T01:40:28;9.10;99.90
44223;DHT22;29895;48.804;9.386;2023-04-01T01:42:58;9.20;99.90
44223;DHT22;29895;48.804;9.386;2023-04-01T01:45:26;9.20;99.90
44223;DHT22;29895;48.804;9.386;2023-04-01T01:47:53;9.20;99.90
44223;DHT22;29895;48.804;9.386;2023-04-01T01:50:21;9.20;99.90
44223;DHT22;29895;48.804;9.386;2023-04-01T01:52:47;9.20;99.90
44223;DHT22;29895;48.804;9.386;2023-04-01T01:55:36;9.20;99.90
44223;DHT22;29895;48.804;9.386;2023-04-01T02:00:45;9.20;99.90
44223;DHT22;29895;48.804;9.386;2023-04-01T02:03:13;9.10;99.90
44223;DHT22;29895;48.804;9.386;2023-04-01T02:05:40;9.00;99.90
44223;DHT22;29895;48.804;9.386;2023-04-01T02:08:18;9.00;99.90
44223;DHT22;29895;48.804;9.386;2023-04-01T02:11:03;9.00;99.90
44223;DHT22;29895;48.804;9.386;2023-04-01T02:13:43;8.90;99.90
44223;DHT22;29895;48.804;9.386;2023-04-01T02:16:17;8.90;99.90
44223;DHT22;29895;48.804;9.386;2023-04-01T02:18:48;8.90;99.90
44223;DHT22;29895;48.804;9.386;2023-04-01T02:21:17;8.80;99.90
44223;DHT22;29895;48.804;9.386;2023-04-01T02:23:44;8.80;99.90
44223;DHT22;29895;48.804;9.386;2023-04-01T02:26:11;8.70;99.90
44223;DHT22;29895;48.804;9.386;2023-04-01T02:28:38;8.70;99.90
44223;DHT22;29895;48.804;9.386;2023-04-01T02:31:04;8.70;99.90
44223;DHT22;29895;48.804;9.386;2023-04-01T02:33:31;8.70;99.90
44223;DHT22;29895;48.804;9.386;2023-04-01T02:35:58;8.80;99.90
44223;DHT22;29895;48.804;9.386;2023-04-01T02:38:23;8.80;99.90
44223;DHT22;29895;48.804;9.386;2023-04-01T02:40:55;8.80;99.90
44223;DHT22;29895;48.804;9.386;2023-04-01T02:43:21;8.80;99.90
44223;DHT22;29895;48.804;9.386;2023-04-01T02:45:47;8.80;99.90
44223;DHT22;29895;48.804;9.386;2023-04-01T02:48:13;8.80;99.90
44223;DHT22;29895;48.804;9.386;2023-04-01T02:50:39;8.70;99.90
44223;DHT22;29895;48.804;9.386;2023-04-01T02:53:05;8.70;99.90
44223;DHT22;29895;48.804;9.386;2023-04-01T02:55:32;8.60;99.90
44223;DHT22;29895;48.804;9.386;2023-04-01T02:57:58;8.60;99.90
44223;DHT22;29895;48.804;9.386;2023-04-01T03:00:24;8.50;99.90
44223;DHT22;29895;48.804;9.386;2023-04-01T03:02:50;8.50;99.90
44223;DHT22;29895;48.804;9.386;2023-04-01T03:05:16;8.50;99.90
44223;DHT22;29895;48.804;9.386;2023-04-01T03:07:41;8.40;99.90
44223;DHT22;29895;48.804;9.386;2023-04-01T03:10:08;8.50;99.90
44223;DHT22;29895;48.804;9.386;2023-04-01T03:12:33;8.50;99.90
44223;DHT22;29895;48.804;9.386;2023-04-01T03:14:59;8.40;99.90
44223;DHT22;29895;48.804;9.386;2023-04-01T03:17:25;8.40;99.90
44223;DHT22;29895;48.804;9.386;2023-04-01T03:19:50;8.50;99.90
44223;DHT22;29895;48.804;9.386;2023-04-01T03:22:16;8.50;99.90
44223;DHT22;29895;48.804;9.386;2023-04-01T03:24:44;8.50;99.90
44223;DHT22;29895;48.804;9.386;2023-04-01T03:27:10;8.60;99.90
44223;DHT22;29895;48.804;9.386;2023-04-01T03:29:35;8.60;99.90
44223;DHT22;29895;48.804;9.386;2023-04-01T03:32:01;8.60;99.90
44223;DHT22;29895;48.804;9.386;2023-04-01T03:34:27;8.50;99.90
44223;DHT22;29895;48.804;9.386;2023-04-01T03:36:53;8.50;99.90
44223;DHT22;29895;48.804;9.386;2023-04-01T03:39:18;8.40;99.90
44223;DHT22;29895;48.804;9.386;2023-04-01T03:41:45;8.40;99.90
44223;DHT22;29895;48.804;9.386;2023-04-01T03:44:11;8.40;99.90
44223;DHT22;29895;48.804;9.386;2023-04-01T03:46:37;8.40;99.90
44223;DHT22;29895;48.804;9.386;2023-04-01T03:49:06;8.40;99.90
44223;DHT22;29895;48.804;9.386;2023-04-01T03:51:40;8.30;99.90
44223;DHT22;29895;48.804;9.386;2023-04-01T03:54:06;8.40;99.90
44223;DHT22;29895;48.804;9.386;2023-04-01T03:56:32;8.40;99.90
44223;DHT22;29895;48.804;9.386;2023-04-01T03:58:58;8.40;99.90
44223;DHT22;29895;48.804;9.386;2023-04-01T04:01:26;8.50;99.90
44223;DHT22;29895;48.804;9.386;2023-04-01T04:03:52;8.40;99.90
44223;DHT22;29895;48.804;9.386;2023-04-01T04:06:18;8.40;99.90
44223;DHT22;29895;48.804;9.386;2023-04-01T04:08:44;8.30;99.90
44223;DHT22;29895;48.804;9.386;2023-04-01T04:11:11;8.30;99.90
44223;DHT22;29895;48.804;9.386;2023-04-01T04:13:36;8.20;99.90
44223;DHT22;29895;48.804;9.386;2023-04-01T04:16:05;8.20;99.90
44223;DHT22;29895;48.804;9.386;2023-04-01T04:18:32;8.20;99.90
44223;DHT22;29895;48.804;9.386;2023-04-01T04:20:57;8.20;99.90
44223;DHT22;29895;48.804;9.386;2023-04-01T04:23:23;8.20;99.90
44223;DHT22;29895;48.804;9.386;2023-04-01T04:26:03;8.10;99.90
44223;DHT22;29895;48.804;9.386;2023-04-01T04:28:29;8.20;99.90
44223;DHT22;29895;48.804;9.386;2023-04-01T04:30:55;8.20;99.90
44223;DHT22;29895;48.804;9.386;2023-04-01T04:33:22;8.20;99.90
44223;DHT22;29895;48.804;9.386;2023-04-01T04:35:48;8.20;99.90
44223;DHT22;29895;48.804;9.386;2023-04-01T04:38:13;8.10;99.90
44223;DHT22;29895;48.804;9.386;2023-04-01T04:40:40;8.00;99.90
44223;DHT22;29895;48.804;9.386;2023-04-01T04:43:06;8.00;99.90
44223;DHT22;29895;48.804;9.386;2023-04-01T04:45:32;7.90;99.90
44223;DHT22;29895;48.804;9.386;2023-04-01T04:47:58;7.90;99.90
44223;DHT22;29895;48.804;9.386;2023-04-01T04:50:24;7.90;99.90
44223;DHT22;29895;48.804;9.386;2023-04-01T04:52:51;7.90;99.90
44223;DHT22;29895;48.804;9.386;2023-04-01T04:55:16;7.90;99.90
44223;DHT22;29895;48.804;9.386;2023-04-01T04:57:42;7.90;99.90
44223;DHT22;29895;48.804;9.386;2023-04-01T05:00:08;8.00;99.90
44223;DHT22;29895;48.804;9.386;2023-04-01T05:02:35;8.00;99.90
44223;DHT22;29895;48.804;9.386;2023-04-01T05:05:01;8.10;99.90
44223;DHT22;29895;48.804;9.386;2023-04-01T05:07:27;8.10;99.90
44223;DHT22;29895;48.804;9.386;2023-04-01T05:09:52;8.10;99.90
44223;DHT22;29895;48.804;9.386;2023-04-01T05:12:18;8.20;99.90
44223;DHT22;29895;48.804;9.386;2023-04-01T05:14:44;8.20;99.90
44223;DHT22;29895;48.804;9.386;2023-04-01T05:17:11;8.20;99.90
44223;DHT22;29895;48.804;9.386;2023-04-01T05:19:37;8.20;99.90
44223;DHT22;29895;48.804;9.386;2023-04-01T05:22:03;8.30;99.90
44223;DHT22;29895;48.804;9.386;2023-04-01T05:24:28;8.30;99.90
44223;DHT22;29895;48.804;9.386;2023-04-01T05:26:55;8.40;99.90
44223;DHT22;29895;48.804;9.386;2023-04-01T05:29:21;8.40;99.90
44223;DHT22;29895;48.804;9.386;2023-04-01T05:31:47;8.40;99.90
44223;DHT22;29895;48.804;9.386;2023-04-01T05:34:13;8.40;99.90
44223;DHT22;29895;48.804;9.386;2023-04-01T05:36:39;8.40;99.90
44223;DHT22;29895;48.804;9.386;2023-04-01T05:39:07;8.40;99.90
44223;DHT22;29895;48.804;9.386;2023-04-01T05:41:35;8.40;99.90
44223;DHT22;29895;48.804;9.386;2023-04-01T05:44:01;8.40;99.90
44223;DHT22;29895;48.804;9.386;2023-04-01T05:46:27;8.50;99.90
44223;DHT22;29895;48.804;9.386;2023-04-01T05:48:52;8.60;99.90
44223;DHT22;29895;48.804;9.386;2023-04-01T05:51:18;8.70;99.90
44223;DHT22;29895;48.804;9.386;2023-04-01T05:53:44;8.70;99.90
44223;DHT22;29895;48.804;9.386;2023-04-01T05:56:10;8.70;99.90
44223;DHT22;29895;48.804;9.386;2023-04-01T05:58:36;8.70;99.90
44223;DHT22;29895;48.804;9.386;2023-04-01T06:01:07;8.80;99.90
44223;DHT22;29895;48.804;9.386;2023-04-01T06:03:33;8.90;99.90
44223;DHT22;29895;48.804;9.386;2023-04-01T06:05:59;9.00;99.90
44223;DHT22;29895;48.804;9.386;2023-04-01T06:08:26;9.10;99.90
44223;DHT22;29895;48.804;9.386;2023-04-01T06:17:30;9.20;99.90
44223;DHT22;29895;48.804;9.386;2023-04-01T06:23:13;9.40;99.90
44223;DHT22;29895;48.804;9.386;2023-04-01T06:33:04;9.80;99.90
44223;DHT22;29895;48.804;9.386;2023-04-01T06:51:50;10.10;99.90
44223;DHT22;29895;48.804;9.386;2023-04-01T06:54:30;10.20;99.90
44223;DHT22;29895;48.804;9.386;2023-04-01T06:57:03;10.10;99.90
44223;DHT22;29895;48.804;9.386;2023-04-01T06:59:34;10.10;99.90
44223;DHT22;29895;48.804;9.386;2023-04-01T07:02:23;10.10;99.90
44223;DHT22;29895;48.804;9.386;2023-04-01T07:04:52;10.00;99.90
44223;DHT22;29895;48.804;9.386;2023-04-01T07:07:46;9.90;99.90
44223;DHT22;29895;48.804;9.386;2023-04-01T07:10:25;9.90;99.90
44223;DHT22;29895;48.804;9.386;2023-04-01T07:12:56;9.90;99.90
44223;DHT22;29895;48.804;9.386;2023-04-01T07:15:44;9.90;99.90
44223;DHT22;29895;48.804;9.386;2023-04-01T07:18:15;9.90;99.90
44223;DHT22;29895;48.804;9.386;2023-04-01T07:20:42;10.00;99.90
44223;DHT22;29895;48.804;9.386;2023-04-01T07:23:29;10.00;99.90
44223;DHT22;29895;48.804;9.386;2023-04-01T07:26:13;10.00;99.90
44223;DHT22;29895;48.804;9.386;2023-04-01T07:28:40;10.20;99.90
44223;DHT22;29895;48.804;9.386;2023-04-01T07:34:28;10.30;99.90
44223;DHT22;29895;48.804;9.386;2023-04-01T07:37:13;10.30;99.90
44223;DHT22;29895;48.804;9.386;2023-04-01T08:01:24;10.50;99.90
44223;DHT22;29895;48.804;9.386;2023-04-01T08:04:47;10.60;99.90
44223;DHT22;29895;48.804;9.386;2023-04-01T08:07:15;10.50;99.90
44223;DHT22;29895;48.804;9.386;2023-04-01T08:12:52;10.60;99.90
44223;DHT22;29895;48.804;9.386;2023-04-01T08:16:26;10.70;99.90
44223;DHT22;29895;48.804;9.386;2023-04-01T08:18:58;10.70;99.90
44223;DHT22;29895;48.804;9.386;2023-04-01T08:21:38;10.80;99.90
44223;DHT22;29895;48.804;9.386;2023-04-01T08:26:56;11.00;99.90
44223;DHT22;29895;48.804;9.386;2023-04-01T08:29:31;11.00;99.90
44223;DHT22;29895;48.804;9.386;2023-04-01T08:32:10;11.00;99.90
44223;DHT22;29895;48.804;9.386;2023-04-01T08:34:40;11.10;99.90
44223;DHT22;29895;48.804;9.386;2023-04-01T08:37:12;11.20;99.90
44223;DHT22;29895;48.804;9.386;2023-04-01T08:39:44;11.10;99.90
44223;DHT22;29895;48.804;9.386;2023-04-01T08:42:29;11.20;99.90
44223;DHT22;29895;48.804;9.386;2023-04-01T08:45:09;11.20;99.90
44223;DHT22;29895;48.804;9.386;2023-04-01T08:47:42;11.20;99.90
44223;DHT22;29895;48.804;9.386;2023-04-01T08:56:12;11.10;99.90
44223;DHT22;29895;48.804;9.386;2023-04-01T09:01:43;10.70;99.90
44223;DHT22;29895;48.804;9.386;2023-04-01T09:10:18;10.10;99.90
44223;DHT22;29895;48.804;9.386;2023-04-01T09:33:08;9.90;99.90
44223;DHT22;29895;48.804;9.386;2023-04-01T09:41:15;10.30;99.90
44223;DHT22;29895;48.804;9.386;2023-04-01T09:49:34;10.70;99.90
44223;DHT22;29895;48.804;9.386;2023-04-01T09:52:20;10.90;99.90
44223;DHT22;29895;48.804;9.386;2023-04-01T09:55:04;11.00;99.90
44223;DHT22;29895;48.804;9.386;2023-04-01T10:05:54;10.70;99.90
44223;DHT22;29895;48.804;9.386;2023-04-01T10:25:19;10.80;99.90
44223;DHT22;29895;48.804;9.386;2023-04-01T10:31:24;10.90;99.90
44223;DHT22;29895;48.804;9.386;2023-04-01T10:35:03;11.00;99.90
44223;DHT22;29895;48.804;9.386;2023-04-01T10:37:54;11.20;99.90
44223;DHT22;29895;48.804;9.386;2023-04-01T10:41:10;11.20;99.90
44223;DHT22;29895;48.804;9.386;2023-04-01T10:48:43;11.30;99.90
44223;DHT22;29895;48.804;9.386;2023-04-01T10:53:54;11.00;99.90
44223;DHT22;29895;48.804;9.386;2023-04-01T11:22:32;10.90;99.90
44223;DHT22;29895;48.804;9.386;2023-04-01T11:25:23;10.90;99.90
44223;DHT22;29895;48.804;9.386;2023-04-01T12:09:01;12.40;99.90
44223;DHT22;29895;48.804;9.386;2023-04-01T12:22:32;11.90;99.90
44223;DHT22;29895;48.804;9.386;2023-04-01T12:39:22;11.60;99.90
44223;DHT22;29895;48.804;9.386;2023-04-01T12:42:17;11.60;99.90
44223;DHT22;29895;48.804;9.386;2023-04-01T12:47:51;11.40;99.90
44223;DHT22;29895;48.804;9.386;2023-04-01T12:55:41;11.60;99.90
44223;DHT22;29895;48.804;9.386;2023-04-01T13:01:22;11.70;99.90
44223;DHT22;29895;48.804;9.386;2023-04-01T13:09:45;12.00;99.90
44223;DHT22;29895;48.804;9.386;2023-04-01T13:18:58;12.00;99.90
44223;DHT22;29895;48.804;9.386;2023-04-01T13:21:28;11.90;99.90
44223;DHT22;29895;48.804;9.386;2023-04-01T13:29:31;11.90;99.90
44223;DHT22;29895;48.804;9.386;2023-04-01T13:34:55;12.00;99.90
44223;DHT22;29895;48.804;9.386;2023-04-01T13:37:42;12.10;99.90
44223;DHT22;29895;48.804;9.386;2023-04-01T13:43:49;12.00;99.90
44223;DHT22;29895;48.804;9.386;2023-04-01T14:03:10;12.20;99.90
44223;DHT22;29895;48.804;9.386;2023-04-01T14:09:30;12.10;99.90
44223;DHT22;29895;48.804;9.386;2023-04-01T14:17:19;12.10;99.90
44223;DHT22;29895;48.804;9.386;2023-04-01T14:23:05;12.20;99.90
44223;DHT22;29895;48.804;9.386;2023-04-01T14:30:46;11.90;99.90
44223;DHT22;29895;48.804;9.386;2023-04-01T14:33:46;11.80;99.90
44223;DHT22;29895;48.804;9.386;2023-04-01T14:36:29;11.90;99.90
44223;DHT22;29895;48.804;9.386;2023-04-01T14:48:04;11.70;99.90
44223;DHT22;29895;48.804;9.386;2023-04-01T14:50:47;11.60;99.90
44223;DHT22;29895;48.804;9.386;2023-04-01T14:53:30;11.50;99.90
44223;DHT22;29895;48.804;9.386;2023-04-01T14:55:58;11.40;99.90
44223;DHT22;29895;48.804;9.386;2023-04-01T14:58:42;11.30;99.90
44223;DHT22;29895;48.804;9.386;2023-04-01T15:12:36;10.70;99.90
44223;DHT22;29895;48.804;9.386;2023-04-01T15:26:11;11.00;99.90
44223;DHT22;29895;48.804;9.386;2023-04-01T15:31:18;11.10;99.90
44223;DHT22;29895;48.804;9.386;2023-04-01T15:37:01;11.00;99.90
44223;DHT22;29895;48.804;9.386;2023-04-01T15:44:52;11.00;99.90
44223;DHT22;29895;48.804;9.386;2023-04-01T16:01:04;11.10;99.90
44223;DHT22;29895;48.804;9.386;2023-04-01T16:03:54;11.10;99.90
44223;DHT22;29895;48.804;9.386;2023-04-01T16:09:29;11.20;99.90
44223;DHT22;29895;48.804;9.386;2023-04-01T16:12:19;11.20;99.90
44223;DHT22;29895;48.804;9.386;2023-04-01T16:23:24;11.10;99.90
44223;DHT22;29895;48.804;9.386;2023-04-01T16:28:43;11.10;99.90
44223;DHT22;29895;48.804;9.386;2023-04-01T16:36:41;11.00;99.90
44223;DHT22;29895;48.804;9.386;2023-04-01T16:45:24;11.00;99.90
44223;DHT22;29895;48.804;9.386;2023-04-01T16:47:35;11.00;99.90
44223;DHT22;29895;48.804;9.386;2023-04-01T16:53:08;11.00;99.90
44223;DHT22;29895;48.804;9.386;2023-04-01T16:58:55;10.70;99.90
44223;DHT22;29895;48.804;9.386;2023-04-01T17:03:46;10.50;99.90
44223;DHT22;29895;48.804;9.386;2023-04-01T17:19:56;10.30;99.90
44223;DHT22;29895;48.804;9.386;2023-04-01T17:33:35;10.30;99.90
44223;DHT22;29895;48.804;9.386;2023-04-01T17:56:22;10.40;99.90
44223;DHT22;29895;48.804;9.386;2023-04-01T18:09:57;10.50;99.90
44223;DHT22;29895;48.804;9.386;2023-04-01T18:20:29;10.30;99.90
44223;DHT22;29895;48.804;9.386;2023-04-01T18:23:14;10.20;99.90
44223;DHT22;29895;48.804;9.386;2023-04-01T18:25:49;10.00;99.90
44223;DHT22;29895;48.804;9.386;2023-04-01T18:31:26;9.80;99.90
44223;DHT22;29895;48.804;9.386;2023-04-01T18:35:00;9.80;99.90
44223;DHT22;29895;48.804;9.386;2023-04-01T18:37:32;9.70;99.90
44223;DHT22;29895;48.804;9.386;2023-04-01T18:39:58;9.60;99.90
44223;DHT22;29895;48.804;9.386;2023-04-01T18:42:44;9.40;99.90
44223;DHT22;29895;48.804;9.386;2023-04-01T18:51:32;9.30;99.90
44223;DHT22;29895;48.804;9.386;2023-04-01T18:54:22;9.30;99.90
44223;DHT22;29895;48.804;9.386;2023-04-01T18:56:49;9.30;99.90
44223;DHT22;29895;48.804;9.386;2023-04-01T18:59:42;9.40;99.90
44223;DHT22;29895;48.804;9.386;2023-04-01T19:19:28;9.30;99.90
44223;DHT22;29895;48.804;9.386;2023-04-01T19:21:58;9.30;99.90
44223;DHT22;29895;48.804;9.386;2023-04-01T19:33:05;8.90;99.90
44223;DHT22;29895;48.804;9.386;2023-04-01T19:35:36;8.80;99.90
44223;DHT22;29895;48.804;9.386;2023-04-01T19:46:48;8.70;99.90
44223;DHT22;29895;48.804;9.386;2023-04-01T19:55:06;8.50;99.90
44223;DHT22;29895;48.804;9.386;2023-04-01T20:00:47;8.40;99.90
44223;DHT22;29895;48.804;9.386;2023-04-01T20:06:16;8.60;99.90
44223;DHT22;29895;48.804;9.386;2023-04-01T20:09:11;8.60;99.90
44223;DHT22;29895;48.804;9.386;2023-04-01T20:11:57;8.70;99.90
44223;DHT22;29895;48.804;9.386;2023-04-01T20:24:49;8.90;99.90
44223;DHT22;29895;48.804;9.386;2023-04-01T20:27:17;9.00;99.90
44223;DHT22;29895;48.804;9.386;2023-04-01T20:35:12;9.20;99.90
44223;DHT22;29895;48.804;9.386;2023-04-01T20:40:25;9.20;99.90
44223;DHT22;29895;48.804;9.386;2023-04-01T20:43:22;9.20;99.90
44223;DHT22;29895;48.804;9.386;2023-04-01T20:45:59;9.30;99.90
44223;DHT22;29895;48.804;9.386;2023-04-01T20:51:24;9.30;99.90
44223;DHT22;29895;48.804;9.386;2023-04-01T21:21:34;9.30;99.90
44223;DHT22;29895;48.804;9.386;2023-04-01T21:27:09;9.30;99.90
44223;DHT22;29895;48.804;9.386;2023-04-01T21:29:44;9.30;99.90
44223;DHT22;29895;48.804;9.386;2023-04-01T21:32:31;9.20;99.90
44223;DHT22;29895;48.804;9.386;2023-04-01T21:40:32;9.20;99.90
44223;DHT22;29895;48.804;9.386;2023-04-01T21:49:06;9.20;99.90
44223;DHT22;29895;48.804;9.386;2023-04-01T22:05:42;9.30;99.90
44223;DHT22;29895;48.804;9.386;2023-04-01T22:14:05;9.20;99.90
44223;DHT22;29895;48.804;9.386;2023-04-01T22:16:42;9.20;99.90
44223;DHT22;29895;48.804;9.386;2023-04-01T22:19:36;9.20;99.90
44223;DHT22;29895;48.804;9.386;2023-04-01T22:22:22;9.10;99.90
44223;DHT22;29895;48.804;9.386;2023-04-01T22:30:06;9.20;99.90
44223;DHT22;29895;48.804;9.386;2023-04-01T22:38:34;9.30;99.90
44223;DHT22;29895;48.804;9.386;2023-04-01T22:41:18;9.30;99.90
44223;DHT22;29895;48.804;9.386;2023-04-01T22:43:47;9.40;99.90
44223;DHT22;29895;48.804;9.386;2023-04-01T22:49:23;9.30;99.90
44223;DHT22;29895;48.804;9.386;2023-04-01T22:54:58;9.40;99.90
44223;DHT22;29895;48.804;9.386;2023-04-01T23:00:32;9.30;99.90
44223;DHT22;29895;48.804;9.386;2023-04-01T23:03:32;9.40;99.90
44223;DHT22;29895;48.804;9.386;2023-04-01T23:06:00;9.30;99.90
44223;DHT22;29895;48.804;9.386;2023-04-01T23:11:07;9.30;99.90
44223;DHT22;29895;48.804;9.386;2023-04-01T23:13:47;9.40;99.90
44223;DHT22;29895;48.804;9.386;2023-04-01T23:16:23;9.40;99.90
44223;DHT22;29895;48.804;9.386;2023-04-01T23:27:05;9.20;99.90
44223;DHT22;29895;48.804;9.386;2023-04-01T23:29:36;9.30;99.90
44223;DHT22;29895;48.804;9.386;2023-04-01T23:32:05;9.30;99.90
44223;DHT22;29895;48.804;9.386;2023-04-01T23:34:33;9.20;99.90
44223;DHT22;29895;48.804;9.386;2023-04-01T23:37:05;9.30;99.90
44223;DHT22;29895;48.804;9.386;2023-04-01T23:39:36;9.20;99.90
44223;DHT22;29895;48.804;9.386;2023-04-01T23:45:16;9.20;99.90
44223;DHT22;29895;48.804;9.386;2023-04-01T23:47:46;9.20;99.90
44223;DHT22;29895;48.804;9.386;2023-04-01T23:50:20;9.20;99.90
44223;DHT22;29895;48.804;9.386;2023-04-01T23:52:48;9.20;99.90
